sensor_id;sensor_type;location;lat;lon;timestamp;P1;durP1;ratioP1;P2;durP2;ratioP2
52414;SDS011;38340;52.964;6.086;2023-08-30T00:00:45;18.90;;;13.60;;
52414;SDS011;38340;52.964;6.086;2023-08-30T00:03:11;15.38;;;12.82;;
52414;SDS011;38340;52.964;6.086;2023-08-30T00:05:40;14.25;;;12.27;;
52414;SDS011;38340;52.964;6.086;2023-08-30T00:08:07;16.08;;;13.07;;
52414;SDS011;38340;52.964;6.086;2023-08-30T00:10:33;15.73;;;12.82;;
52414;SDS011;38340;52.964;6.086;2023-08-30T00:12:59;19.98;;;13.73;;
52414;SDS011;38340;52.964;6.086;2023-08-30T00:15:25;18.40;;;14.02;;
52414;SDS011;38340;52.964;6.086;2023-08-30T00:17:50;15.32;;;12.63;;
52414;SDS011;38340;52.964;6.086;2023-08-30T00:20:19;15.75;;;12.90;;
52414;SDS011;38340;52.964;6.086;2023-08-30T00:22:46;18.38;;;13.23;;
52414;SDS011;38340;52.964;6.086;2023-08-30T00:25:13;18.85;;;12.65;;
52414;SDS011;38340;52.964;6.086;2023-08-30T00:27:39;13.35;;;11.40;;
52414;SDS011;38340;52.964;6.086;2023-08-30T00:30:05;15.20;;;12.55;;
52414;SDS011;38340;52.964;6.086;2023-08-30T00:32:33;16.13;;;12.50;;
52414;SDS011;38340;52.964;6.086;2023-08-30T00:34:59;15.15;;;12.00;;
52414;SDS011;38340;52.964;6.086;2023-08-30T00:37:24;16.08;;;12.55;;
52414;SDS011;38340;52.964;6.086;2023-08-30T00:39:50;14.23;;;11.65;;
52414;SDS011;38340;52.964;6.086;2023-08-30T00:42:16;14.45;;;11.55;;
52414;SDS011;38340;52.964;6.086;2023-08-30T00:44:41;15.43;;;12.48;;
52414;SDS011;38340;52.964;6.086;2023-08-30T00:47:07;13.70;;;11.68;;
52414;SDS011;38340;52.964;6.086;2023-08-30T00:49:33;16.50;;;10.63;;
52414;SDS011;38340;52.964;6.086;2023-08-30T00:52:00;12.60;;;11.00;;
52414;SDS011;38340;52.964;6.086;2023-08-30T00:54:28;12.82;;;10.88;;
52414;SDS011;38340;52.964;6.086;2023-08-30T00:56:54;15.63;;;11.23;;
52414;SDS011;38340;52.964;6.086;2023-08-30T00:59:20;14.02;;;11.07;;
52414;SDS011;38340;52.964;6.086;2023-08-30T01:01:47;13.40;;;10.85;;
52414;SDS011;38340;52.964;6.086;2023-08-30T01:04:13;14.50;;;12.00;;
52414;SDS011;38340;52.964;6.086;2023-08-30T01:06:39;14.02;;;11.45;;
52414;SDS011;38340;52.964;6.086;2023-08-30T01:09:06;14.07;;;11.23;;
52414;SDS011;38340;52.964;6.086;2023-08-30T01:11:35;15.23;;;11.52;;
52414;SDS011;38340;52.964;6.086;2023-08-30T01:14:04;15.05;;;10.63;;
52414;SDS011;38340;52.964;6.086;2023-08-30T01:16:34;16.10;;;11.90;;
52414;SDS011;38340;52.964;6.086;2023-08-30T01:19:02;12.88;;;10.57;;
52414;SDS011;38340;52.964;6.086;2023-08-30T01:21:47;14.37;;;11.27;;
52414;SDS011;38340;52.964;6.086;2023-08-30T01:24:26;13.82;;;10.52;;
52414;SDS011;38340;52.964;6.086;2023-08-30T01:27:16;13.35;;;10.77;;
52414;SDS011;38340;52.964;6.086;2023-08-30T01:29:44;15.32;;;11.30;;
52414;SDS011;38340;52.964;6.086;2023-08-30T01:32:12;15.07;;;10.60;;
52414;SDS011;38340;52.964;6.086;2023-08-30T01:34:39;14.85;;;11.27;;
52414;SDS011;38340;52.964;6.086;2023-08-30T01:37:07;13.52;;;10.43;;
52414;SDS011;38340;52.964;6.086;2023-08-30T01:39:34;15.63;;;11.38;;
52414;SDS011;38340;52.964;6.086;2023-08-30T01:42:02;15.10;;;11.65;;
52414;SDS011;38340;52.964;6.086;2023-08-30T01:44:29;14.60;;;10.75;;
52414;SDS011;38340;52.964;6.086;2023-08-30T01:46:56;14.85;;;11.38;;
52414;SDS011;38340;52.964;6.086;2023-08-30T01:49:23;14.15;;;11.00;;
52414;SDS011;38340;52.964;6.086;2023-08-30T01:51:50;14.13;;;11.35;;
52414;SDS011;38340;52.964;6.086;2023-08-30T01:54:17;14.10;;;10.85;;
52414;SDS011;38340;52.964;6.086;2023-08-30T01:56:44;14.05;;;11.02;;
52414;SDS011;38340;52.964;6.086;2023-08-30T01:59:10;15.70;;;10.55;;
52414;SDS011;38340;52.964;6.086;2023-08-30T02:01:36;13.02;;;10.43;;
52414;SDS011;38340;52.964;6.086;2023-08-30T02:04:02;11.63;;;10.32;;
52414;SDS011;38340;52.964;6.086;2023-08-30T02:06:45;12.55;;;9.70;;
52414;SDS011;38340;52.964;6.086;2023-08-30T02:09:24;11.68;;;9.05;;
52414;SDS011;38340;52.964;6.086;2023-08-30T02:11:55;12.07;;;10.15;;
52414;SDS011;38340;52.964;6.086;2023-08-30T02:14:25;15.13;;;10.38;;
52414;SDS011;38340;52.964;6.086;2023-08-30T02:16:52;12.43;;;10.32;;
52414;SDS011;38340;52.964;6.086;2023-08-30T02:19:20;14.98;;;10.43;;
52414;SDS011;38340;52.964;6.086;2023-08-30T02:21:46;12.20;;;10.05;;
52414;SDS011;38340;52.964;6.086;2023-08-30T02:24:13;14.18;;;10.88;;
52414;SDS011;38340;52.964;6.086;2023-08-30T02:26:38;15.80;;;10.55;;
52414;SDS011;38340;52.964;6.086;2023-08-30T02:29:04;15.52;;;10.77;;
52414;SDS011;38340;52.964;6.086;2023-08-30T02:31:30;14.05;;;10.95;;
52414;SDS011;38340;52.964;6.086;2023-08-30T02:33:56;14.13;;;11.25;;
52414;SDS011;38340;52.964;6.086;2023-08-30T02:36:22;14.07;;;10.73;;
52414;SDS011;38340;52.964;6.086;2023-08-30T02:38:47;12.70;;;10.95;;
52414;SDS011;38340;52.964;6.086;2023-08-30T02:41:13;14.55;;;10.80;;
52414;SDS011;38340;52.964;6.086;2023-08-30T02:43:39;16.55;;;11.25;;
52414;SDS011;38340;52.964;6.086;2023-08-30T02:46:04;16.15;;;11.52;;
52414;SDS011;38340;52.964;6.086;2023-08-30T02:48:31;16.27;;;12.68;;
52414;SDS011;38340;52.964;6.086;2023-08-30T02:50:57;15.15;;;12.05;;
52414;SDS011;38340;52.964;6.086;2023-08-30T02:53:23;16.02;;;12.40;;
52414;SDS011;38340;52.964;6.086;2023-08-30T02:55:48;20.00;;;12.88;;
52414;SDS011;38340;52.964;6.086;2023-08-30T02:58:14;16.50;;;11.55;;
52414;SDS011;38340;52.964;6.086;2023-08-30T03:00:40;16.95;;;12.30;;
52414;SDS011;38340;52.964;6.086;2023-08-30T03:03:06;16.05;;;12.90;;
52414;SDS011;38340;52.964;6.086;2023-08-30T03:05:31;16.35;;;13.02;;
52414;SDS011;38340;52.964;6.086;2023-08-30T03:07:57;16.85;;;12.73;;
52414;SDS011;38340;52.964;6.086;2023-08-30T03:10:24;18.10;;;13.40;;
52414;SDS011;38340;52.964;6.086;2023-08-30T03:12:50;15.30;;;11.60;;
52414;SDS011;38340;52.964;6.086;2023-08-30T03:15:16;17.88;;;13.48;;
52414;SDS011;38340;52.964;6.086;2023-08-30T03:17:41;17.05;;;13.02;;
52414;SDS011;38340;52.964;6.086;2023-08-30T03:20:07;16.27;;;12.13;;
52414;SDS011;38340;52.964;6.086;2023-08-30T03:22:33;19.25;;;13.27;;
52414;SDS011;38340;52.964;6.086;2023-08-30T03:24:59;15.48;;;12.18;;
52414;SDS011;38340;52.964;6.086;2023-08-30T03:27:27;18.38;;;12.90;;
52414;SDS011;38340;52.964;6.086;2023-08-30T03:29:54;18.05;;;12.95;;
52414;SDS011;38340;52.964;6.086;2023-08-30T03:32:22;15.23;;;13.43;;
52414;SDS011;38340;52.964;6.086;2023-08-30T03:34:48;18.60;;;13.95;;
52414;SDS011;38340;52.964;6.086;2023-08-30T03:37:14;18.58;;;13.02;;
52414;SDS011;38340;52.964;6.086;2023-08-30T03:39:40;18.48;;;13.23;;
52414;SDS011;38340;52.964;6.086;2023-08-30T03:42:06;16.13;;;12.82;;
52414;SDS011;38340;52.964;6.086;2023-08-30T03:44:31;17.08;;;12.82;;
52414;SDS011;38340;52.964;6.086;2023-08-30T03:46:57;18.90;;;13.52;;
52414;SDS011;38340;52.964;6.086;2023-08-30T03:49:23;15.35;;;11.65;;
52414;SDS011;38340;52.964;6.086;2023-08-30T03:51:49;17.35;;;13.30;;
52414;SDS011;38340;52.964;6.086;2023-08-30T03:54:14;17.15;;;13.27;;
52414;SDS011;38340;52.964;6.086;2023-08-30T03:56:42;16.90;;;13.10;;
52414;SDS011;38340;52.964;6.086;2023-08-30T03:59:09;17.67;;;12.40;;
52414;SDS011;38340;52.964;6.086;2023-08-30T04:01:34;18.50;;;13.60;;
52414;SDS011;38340;52.964;6.086;2023-08-30T04:04:00;18.58;;;12.88;;
52414;SDS011;38340;52.964;6.086;2023-08-30T04:06:26;17.27;;;12.40;;
52414;SDS011;38340;52.964;6.086;2023-08-30T04:08:51;19.40;;;13.52;;
52414;SDS011;38340;52.964;6.086;2023-08-30T04:11:17;15.77;;;12.32;;
52414;SDS011;38340;52.964;6.086;2023-08-30T04:13:43;15.80;;;12.38;;
52414;SDS011;38340;52.964;6.086;2023-08-30T04:16:08;16.70;;;11.93;;
52414;SDS011;38340;52.964;6.086;2023-08-30T04:18:34;18.15;;;13.00;;
52414;SDS011;38340;52.964;6.086;2023-08-30T04:21:00;19.77;;;11.85;;
52414;SDS011;38340;52.964;6.086;2023-08-30T04:23:27;15.88;;;12.30;;
52414;SDS011;38340;52.964;6.086;2023-08-30T04:25:54;15.80;;;11.15;;
52414;SDS011;38340;52.964;6.086;2023-08-30T04:28:20;17.95;;;11.60;;
52414;SDS011;38340;52.964;6.086;2023-08-30T04:30:46;14.40;;;11.57;;
52414;SDS011;38340;52.964;6.086;2023-08-30T04:33:12;17.48;;;11.52;;
52414;SDS011;38340;52.964;6.086;2023-08-30T04:35:38;15.10;;;11.30;;
52414;SDS011;38340;52.964;6.086;2023-08-30T04:38:04;14.73;;;12.35;;
52414;SDS011;38340;52.964;6.086;2023-08-30T04:40:30;14.82;;;11.65;;
52414;SDS011;38340;52.964;6.086;2023-08-30T04:43:00;14.80;;;11.32;;
52414;SDS011;38340;52.964;6.086;2023-08-30T04:45:26;19.90;;;13.00;;
52414;SDS011;38340;52.964;6.086;2023-08-30T04:47:52;17.38;;;11.13;;
52414;SDS011;38340;52.964;6.086;2023-08-30T04:50:18;15.77;;;11.35;;
52414;SDS011;38340;52.964;6.086;2023-08-30T04:52:44;14.43;;;11.50;;
52414;SDS011;38340;52.964;6.086;2023-08-30T04:55:10;15.85;;;11.90;;
52414;SDS011;38340;52.964;6.086;2023-08-30T04:57:36;14.10;;;10.98;;
52414;SDS011;38340;52.964;6.086;2023-08-30T05:00:01;15.20;;;11.15;;
52414;SDS011;38340;52.964;6.086;2023-08-30T05:02:30;14.77;;;11.20;;
52414;SDS011;38340;52.964;6.086;2023-08-30T05:04:56;13.90;;;10.55;;
52414;SDS011;38340;52.964;6.086;2023-08-30T05:07:22;15.55;;;10.52;;
52414;SDS011;38340;52.964;6.086;2023-08-30T05:09:47;14.73;;;9.88;;
52414;SDS011;38340;52.964;6.086;2023-08-30T05:12:13;12.63;;;9.13;;
52414;SDS011;38340;52.964;6.086;2023-08-30T05:14:39;15.85;;;9.63;;
52414;SDS011;38340;52.964;6.086;2023-08-30T05:17:06;13.98;;;9.73;;
52414;SDS011;38340;52.964;6.086;2023-08-30T05:19:32;14.25;;;10.00;;
52414;SDS011;38340;52.964;6.086;2023-08-30T05:21:58;14.88;;;9.77;;
52414;SDS011;38340;52.964;6.086;2023-08-30T05:24:24;14.13;;;9.68;;
52414;SDS011;38340;52.964;6.086;2023-08-30T05:26:51;13.90;;;9.63;;
52414;SDS011;38340;52.964;6.086;2023-08-30T05:29:17;13.05;;;9.30;;
52414;SDS011;38340;52.964;6.086;2023-08-30T05:31:43;14.13;;;9.15;;
52414;SDS011;38340;52.964;6.086;2023-08-30T05:34:09;12.25;;;9.30;;
52414;SDS011;38340;52.964;6.086;2023-08-30T05:36:35;15.50;;;9.23;;
52414;SDS011;38340;52.964;6.086;2023-08-30T05:39:01;13.60;;;9.98;;
52414;SDS011;38340;52.964;6.086;2023-08-30T05:41:28;15.63;;;9.57;;
52414;SDS011;38340;52.964;6.086;2023-08-30T05:43:55;15.18;;;9.20;;
52414;SDS011;38340;52.964;6.086;2023-08-30T05:46:20;14.93;;;10.32;;
52414;SDS011;38340;52.964;6.086;2023-08-30T05:48:46;14.55;;;11.00;;
52414;SDS011;38340;52.964;6.086;2023-08-30T05:51:12;14.27;;;10.15;;
52414;SDS011;38340;52.964;6.086;2023-08-30T05:53:38;13.65;;;9.45;;
52414;SDS011;38340;52.964;6.086;2023-08-30T05:56:04;15.18;;;10.32;;
52414;SDS011;38340;52.964;6.086;2023-08-30T05:58:29;12.45;;;9.07;;
52414;SDS011;38340;52.964;6.086;2023-08-30T06:00:56;13.52;;;9.70;;
52414;SDS011;38340;52.964;6.086;2023-08-30T06:03:22;13.32;;;9.57;;
52414;SDS011;38340;52.964;6.086;2023-08-30T06:05:47;12.48;;;9.10;;
52414;SDS011;38340;52.964;6.086;2023-08-30T06:08:14;15.23;;;9.52;;
52414;SDS011;38340;52.964;6.086;2023-08-30T06:10:40;13.25;;;8.85;;
52414;SDS011;38340;52.964;6.086;2023-08-30T06:13:05;23.38;;;9.73;;
52414;SDS011;38340;52.964;6.086;2023-08-30T06:15:31;12.93;;;8.95;;
52414;SDS011;38340;52.964;6.086;2023-08-30T06:17:58;16.20;;;9.63;;
52414;SDS011;38340;52.964;6.086;2023-08-30T06:20:24;13.15;;;9.30;;
52414;SDS011;38340;52.964;6.086;2023-08-30T06:22:50;14.88;;;9.52;;
52414;SDS011;38340;52.964;6.086;2023-08-30T06:25:15;13.88;;;8.77;;
52414;SDS011;38340;52.964;6.086;2023-08-30T06:27:42;11.88;;;8.98;;
52414;SDS011;38340;52.964;6.086;2023-08-30T06:30:21;12.20;;;9.30;;
52414;SDS011;38340;52.964;6.086;2023-08-30T06:32:47;17.52;;;9.82;;
52414;SDS011;38340;52.964;6.086;2023-08-30T06:35:14;14.13;;;9.40;;
52414;SDS011;38340;52.964;6.086;2023-08-30T06:37:40;13.05;;;8.85;;
52414;SDS011;38340;52.964;6.086;2023-08-30T06:40:06;14.50;;;9.93;;
52414;SDS011;38340;52.964;6.086;2023-08-30T06:42:32;13.35;;;9.48;;
52414;SDS011;38340;52.964;6.086;2023-08-30T06:44:58;14.98;;;9.07;;
52414;SDS011;38340;52.964;6.086;2023-08-30T06:47:23;14.25;;;9.18;;
52414;SDS011;38340;52.964;6.086;2023-08-30T06:49:49;13.88;;;8.60;;
52414;SDS011;38340;52.964;6.086;2023-08-30T06:52:15;11.93;;;8.57;;
52414;SDS011;38340;52.964;6.086;2023-08-30T06:54:40;13.32;;;9.00;;
52414;SDS011;38340;52.964;6.086;2023-08-30T06:57:06;13.55;;;8.45;;
52414;SDS011;38340;52.964;6.086;2023-08-30T06:59:32;14.15;;;8.95;;
52414;SDS011;38340;52.964;6.086;2023-08-30T07:01:58;13.68;;;9.05;;
52414;SDS011;38340;52.964;6.086;2023-08-30T07:04:23;13.65;;;8.48;;
52414;SDS011;38340;52.964;6.086;2023-08-30T07:06:49;13.73;;;9.00;;
52414;SDS011;38340;52.964;6.086;2023-08-30T07:09:16;14.00;;;9.02;;
52414;SDS011;38340;52.964;6.086;2023-08-30T07:11:42;11.90;;;8.20;;
52414;SDS011;38340;52.964;6.086;2023-08-30T07:14:12;14.07;;;8.93;;
52414;SDS011;38340;52.964;6.086;2023-08-30T07:16:39;14.88;;;7.82;;
52414;SDS011;38340;52.964;6.086;2023-08-30T07:19:05;12.00;;;7.60;;
52414;SDS011;38340;52.964;6.086;2023-08-30T07:21:31;11.18;;;7.28;;
52414;SDS011;38340;52.964;6.086;2023-08-30T07:23:58;12.25;;;8.25;;
52414;SDS011;38340;52.964;6.086;2023-08-30T07:26:23;14.07;;;8.73;;
52414;SDS011;38340;52.964;6.086;2023-08-30T07:28:49;13.07;;;8.27;;
52414;SDS011;38340;52.964;6.086;2023-08-30T07:31:15;11.65;;;7.85;;
52414;SDS011;38340;52.964;6.086;2023-08-30T07:33:43;10.75;;;8.13;;
52414;SDS011;38340;52.964;6.086;2023-08-30T07:36:09;14.48;;;8.73;;
52414;SDS011;38340;52.964;6.086;2023-08-30T07:38:36;14.10;;;8.50;;
52414;SDS011;38340;52.964;6.086;2023-08-30T07:41:02;13.57;;;8.85;;
52414;SDS011;38340;52.964;6.086;2023-08-30T07:43:28;12.50;;;8.13;;
52414;SDS011;38340;52.964;6.086;2023-08-30T07:45:53;12.27;;;8.35;;
52414;SDS011;38340;52.964;6.086;2023-08-30T07:48:19;12.23;;;7.80;;
52414;SDS011;38340;52.964;6.086;2023-08-30T07:50:45;12.73;;;8.52;;
52414;SDS011;38340;52.964;6.086;2023-08-30T07:53:11;11.85;;;8.05;;
52414;SDS011;38340;52.964;6.086;2023-08-30T07:55:37;12.82;;;8.88;;
52414;SDS011;38340;52.964;6.086;2023-08-30T07:58:03;12.50;;;8.18;;
52414;SDS011;38340;52.964;6.086;2023-08-30T08:00:29;13.20;;;8.45;;
52414;SDS011;38340;52.964;6.086;2023-08-30T08:02:55;13.98;;;8.60;;
52414;SDS011;38340;52.964;6.086;2023-08-30T08:05:21;12.10;;;7.72;;
52414;SDS011;38340;52.964;6.086;2023-08-30T08:07:51;12.63;;;8.90;;
52414;SDS011;38340;52.964;6.086;2023-08-30T08:10:18;13.00;;;8.27;;
52414;SDS011;38340;52.964;6.086;2023-08-30T08:12:44;11.98;;;8.23;;
52414;SDS011;38340;52.964;6.086;2023-08-30T08:15:10;13.43;;;8.60;;
52414;SDS011;38340;52.964;6.086;2023-08-30T08:17:36;13.75;;;8.05;;
52414;SDS011;38340;52.964;6.086;2023-08-30T08:20:02;13.13;;;7.90;;
52414;SDS011;38340;52.964;6.086;2023-08-30T08:22:29;11.85;;;8.32;;
52414;SDS011;38340;52.964;6.086;2023-08-30T08:24:55;14.15;;;8.20;;
52414;SDS011;38340;52.964;6.086;2023-08-30T08:27:22;14.93;;;8.18;;
52414;SDS011;38340;52.964;6.086;2023-08-30T08:29:50;13.10;;;7.93;;
52414;SDS011;38340;52.964;6.086;2023-08-30T08:32:15;13.40;;;8.05;;
52414;SDS011;38340;52.964;6.086;2023-08-30T08:34:41;15.27;;;7.70;;
52414;SDS011;38340;52.964;6.086;2023-08-30T08:37:07;12.35;;;8.02;;
52414;SDS011;38340;52.964;6.086;2023-08-30T08:39:33;14.35;;;8.35;;
52414;SDS011;38340;52.964;6.086;2023-08-30T08:41:59;13.60;;;8.40;;
52414;SDS011;38340;52.964;6.086;2023-08-30T08:44:26;12.60;;;7.93;;
52414;SDS011;38340;52.964;6.086;2023-08-30T08:46:54;13.07;;;8.25;;
52414;SDS011;38340;52.964;6.086;2023-08-30T08:49:20;12.65;;;8.27;;
52414;SDS011;38340;52.964;6.086;2023-08-30T08:51:46;11.57;;;7.75;;
52414;SDS011;38340;52.964;6.086;2023-08-30T08:54:12;12.18;;;7.53;;
52414;SDS011;38340;52.964;6.086;2023-08-30T08:56:38;22.40;;;9.85;;
52414;SDS011;38340;52.964;6.086;2023-08-30T08:59:04;14.02;;;7.82;;
52414;SDS011;38340;52.964;6.086;2023-08-30T09:01:33;16.65;;;7.80;;
52414;SDS011;38340;52.964;6.086;2023-08-30T09:04:08;12.02;;;7.43;;
52414;SDS011;38340;52.964;6.086;2023-08-30T09:06:35;11.48;;;7.15;;
52414;SDS011;38340;52.964;6.086;2023-08-30T09:09:02;11.07;;;6.88;;
52414;SDS011;38340;52.964;6.086;2023-08-30T09:11:33;12.32;;;7.65;;
52414;SDS011;38340;52.964;6.086;2023-08-30T09:13:59;10.80;;;6.45;;
52414;SDS011;38340;52.964;6.086;2023-08-30T09:16:24;7.50;;;5.47;;
52414;SDS011;38340;52.964;6.086;2023-08-30T09:18:57;8.85;;;5.40;;
52414;SDS011;38340;52.964;6.086;2023-08-30T09:21:24;8.10;;;5.38;;
52414;SDS011;38340;52.964;6.086;2023-08-30T09:24:02;11.13;;;5.63;;
52414;SDS011;38340;52.964;6.086;2023-08-30T09:26:30;7.70;;;4.97;;
52414;SDS011;38340;52.964;6.086;2023-08-30T09:29:01;5.90;;;4.47;;
52414;SDS011;38340;52.964;6.086;2023-08-30T09:31:32;8.13;;;5.18;;
52414;SDS011;38340;52.964;6.086;2023-08-30T09:33:58;6.97;;;4.70;;
52414;SDS011;38340;52.964;6.086;2023-08-30T09:36:26;7.45;;;5.22;;
52414;SDS011;38340;52.964;6.086;2023-08-30T09:38:52;8.68;;;5.50;;
52414;SDS011;38340;52.964;6.086;2023-08-30T09:41:18;6.55;;;4.75;;
52414;SDS011;38340;52.964;6.086;2023-08-30T09:43:43;6.80;;;5.10;;
52414;SDS011;38340;52.964;6.086;2023-08-30T09:46:09;7.35;;;4.90;;
52414;SDS011;38340;52.964;6.086;2023-08-30T09:48:35;7.50;;;5.43;;
52414;SDS011;38340;52.964;6.086;2023-08-30T09:51:03;8.02;;;5.80;;
52414;SDS011;38340;52.964;6.086;2023-08-30T09:53:35;6.28;;;5.10;;
52414;SDS011;38340;52.964;6.086;2023-08-30T09:56:08;8.55;;;5.60;;
52414;SDS011;38340;52.964;6.086;2023-08-30T09:58:36;7.28;;;4.95;;
52414;SDS011;38340;52.964;6.086;2023-08-30T10:01:03;7.35;;;4.80;;
52414;SDS011;38340;52.964;6.086;2023-08-30T10:03:30;7.75;;;5.22;;
52414;SDS011;38340;52.964;6.086;2023-08-30T10:05:56;6.90;;;4.78;;
52414;SDS011;38340;52.964;6.086;2023-08-30T10:08:23;8.45;;;5.07;;
52414;SDS011;38340;52.964;6.086;2023-08-30T10:10:55;9.07;;;5.57;;
52414;SDS011;38340;52.964;6.086;2023-08-30T10:13:24;7.03;;;4.97;;
52414;SDS011;38340;52.964;6.086;2023-08-30T10:15:51;9.98;;;5.88;;
52414;SDS011;38340;52.964;6.086;2023-08-30T10:18:22;8.95;;;6.47;;
52414;SDS011;38340;52.964;6.086;2023-08-30T10:20:54;10.68;;;6.75;;
52414;SDS011;38340;52.964;6.086;2023-08-30T10:23:20;9.63;;;6.70;;
52414;SDS011;38340;52.964;6.086;2023-08-30T10:25:48;7.55;;;5.68;;
52414;SDS011;38340;52.964;6.086;2023-08-30T10:28:15;7.90;;;5.95;;
52414;SDS011;38340;52.964;6.086;2023-08-30T10:30:42;6.65;;;5.45;;
52414;SDS011;38340;52.964;6.086;2023-08-30T10:33:12;7.88;;;5.00;;
52414;SDS011;38340;52.964;6.086;2023-08-30T10:35:48;7.93;;;5.80;;
52414;SDS011;38340;52.964;6.086;2023-08-30T10:38:25;6.65;;;4.85;;
52414;SDS011;38340;52.964;6.086;2023-08-30T10:40:52;8.05;;;4.70;;
52414;SDS011;38340;52.964;6.086;2023-08-30T10:43:27;6.53;;;5.05;;
52414;SDS011;38340;52.964;6.086;2023-08-30T10:46:01;8.25;;;4.93;;
52414;SDS011;38340;52.964;6.086;2023-08-30T10:48:37;7.63;;;5.90;;
52414;SDS011;38340;52.964;6.086;2023-08-30T10:51:06;8.32;;;5.90;;
52414;SDS011;38340;52.964;6.086;2023-08-30T10:53:55;6.47;;;5.35;;
52414;SDS011;38340;52.964;6.086;2023-08-30T10:56:26;6.30;;;5.07;;
52414;SDS011;38340;52.964;6.086;2023-08-30T10:58:56;7.18;;;5.45;;
52414;SDS011;38340;52.964;6.086;2023-08-30T11:01:22;7.53;;;5.20;;
52414;SDS011;38340;52.964;6.086;2023-08-30T11:03:49;6.85;;;4.95;;
52414;SDS011;38340;52.964;6.086;2023-08-30T11:06:15;8.10;;;5.40;;
52414;SDS011;38340;52.964;6.086;2023-08-30T11:08:42;9.32;;;5.60;;
52414;SDS011;38340;52.964;6.086;2023-08-30T11:11:09;7.65;;;5.32;;
52414;SDS011;38340;52.964;6.086;2023-08-30T11:13:39;6.97;;;4.85;;
52414;SDS011;38340;52.964;6.086;2023-08-30T11:16:05;7.97;;;6.35;;
52414;SDS011;38340;52.964;6.086;2023-08-30T11:18:36;7.75;;;5.65;;
52414;SDS011;38340;52.964;6.086;2023-08-30T11:21:03;6.90;;;5.40;;
52414;SDS011;38340;52.964;6.086;2023-08-30T11:23:29;6.25;;;4.95;;
52414;SDS011;38340;52.964;6.086;2023-08-30T11:25:55;8.15;;;5.07;;
52414;SDS011;38340;52.964;6.086;2023-08-30T11:28:23;6.78;;;5.25;;
52414;SDS011;38340;52.964;6.086;2023-08-30T11:30:50;6.13;;;5.15;;
52414;SDS011;38340;52.964;6.086;2023-08-30T11:33:19;7.43;;;5.18;;
52414;SDS011;38340;52.964;6.086;2023-08-30T11:35:45;8.43;;;5.95;;
52414;SDS011;38340;52.964;6.086;2023-08-30T11:38:14;9.48;;;5.45;;
52414;SDS011;38340;52.964;6.086;2023-08-30T11:40:40;6.78;;;5.82;;
52414;SDS011;38340;52.964;6.086;2023-08-30T11:43:06;7.20;;;5.47;;
52414;SDS011;38340;52.964;6.086;2023-08-30T11:45:32;8.93;;;6.22;;
52414;SDS011;38340;52.964;6.086;2023-08-30T11:48:01;8.07;;;5.55;;
52414;SDS011;38340;52.964;6.086;2023-08-30T11:50:27;10.77;;;6.03;;
52414;SDS011;38340;52.964;6.086;2023-08-30T11:52:54;8.73;;;6.28;;
52414;SDS011;38340;52.964;6.086;2023-08-30T11:55:21;8.40;;;6.20;;
52414;SDS011;38340;52.964;6.086;2023-08-30T11:57:50;9.35;;;6.20;;
52414;SDS011;38340;52.964;6.086;2023-08-30T12:00:18;7.68;;;5.90;;
52414;SDS011;38340;52.964;6.086;2023-08-30T12:02:45;7.82;;;5.55;;
52414;SDS011;38340;52.964;6.086;2023-08-30T12:05:15;8.25;;;6.40;;
52414;SDS011;38340;52.964;6.086;2023-08-30T12:07:41;7.57;;;5.38;;
52414;SDS011;38340;52.964;6.086;2023-08-30T12:10:08;9.25;;;6.38;;
52414;SDS011;38340;52.964;6.086;2023-08-30T12:12:35;7.28;;;5.50;;
52414;SDS011;38340;52.964;6.086;2023-08-30T12:15:10;7.60;;;5.60;;
52414;SDS011;38340;52.964;6.086;2023-08-30T12:17:36;8.43;;;6.00;;
52414;SDS011;38340;52.964;6.086;2023-08-30T12:20:02;7.50;;;5.38;;
52414;SDS011;38340;52.964;6.086;2023-08-30T12:22:36;8.00;;;5.75;;
52414;SDS011;38340;52.964;6.086;2023-08-30T12:25:03;7.82;;;5.53;;
52414;SDS011;38340;52.964;6.086;2023-08-30T12:27:29;8.60;;;5.40;;
52414;SDS011;38340;52.964;6.086;2023-08-30T12:29:55;7.50;;;5.82;;
52414;SDS011;38340;52.964;6.086;2023-08-30T12:32:21;9.95;;;5.78;;
52414;SDS011;38340;52.964;6.086;2023-08-30T12:34:46;7.55;;;5.78;;
52414;SDS011;38340;52.964;6.086;2023-08-30T12:37:12;10.02;;;6.60;;
52414;SDS011;38340;52.964;6.086;2023-08-30T12:39:38;10.63;;;6.93;;
52414;SDS011;38340;52.964;6.086;2023-08-30T12:42:03;8.13;;;6.65;;
52414;SDS011;38340;52.964;6.086;2023-08-30T12:44:29;8.68;;;6.20;;
52414;SDS011;38340;52.964;6.086;2023-08-30T12:46:55;10.30;;;5.95;;
52414;SDS011;38340;52.964;6.086;2023-08-30T12:49:21;11.25;;;7.40;;
52414;SDS011;38340;52.964;6.086;2023-08-30T12:51:46;9.85;;;6.88;;
52414;SDS011;38340;52.964;6.086;2023-08-30T12:54:12;8.18;;;6.07;;
52414;SDS011;38340;52.964;6.086;2023-08-30T12:56:38;8.50;;;6.00;;
52414;SDS011;38340;52.964;6.086;2023-08-30T12:59:04;8.20;;;5.65;;
52414;SDS011;38340;52.964;6.086;2023-08-30T13:01:29;6.82;;;5.53;;
52414;SDS011;38340;52.964;6.086;2023-08-30T13:03:55;7.78;;;5.82;;
52414;SDS011;38340;52.964;6.086;2023-08-30T13:06:21;9.73;;;5.43;;
52414;SDS011;38340;52.964;6.086;2023-08-30T13:08:46;7.65;;;5.68;;
52414;SDS011;38340;52.964;6.086;2023-08-30T13:11:12;8.52;;;6.03;;
52414;SDS011;38340;52.964;6.086;2023-08-30T13:13:38;7.30;;;5.40;;
52414;SDS011;38340;52.964;6.086;2023-08-30T13:16:03;7.40;;;5.25;;
52414;SDS011;38340;52.964;6.086;2023-08-30T13:18:29;7.50;;;5.10;;
52414;SDS011;38340;52.964;6.086;2023-08-30T13:20:55;6.40;;;5.05;;
52414;SDS011;38340;52.964;6.086;2023-08-30T13:23:20;6.43;;;5.18;;
52414;SDS011;38340;52.964;6.086;2023-08-30T13:25:47;6.70;;;4.25;;
52414;SDS011;38340;52.964;6.086;2023-08-30T13:28:14;9.65;;;4.50;;
52414;SDS011;38340;52.964;6.086;2023-08-30T13:30:45;6.75;;;4.38;;
52414;SDS011;38340;52.964;6.086;2023-08-30T13:33:12;4.57;;;3.90;;
52414;SDS011;38340;52.964;6.086;2023-08-30T13:35:40;5.20;;;4.30;;
52414;SDS011;38340;52.964;6.086;2023-08-30T13:38:06;5.32;;;4.10;;
52414;SDS011;38340;52.964;6.086;2023-08-30T13:40:32;5.75;;;4.57;;
52414;SDS011;38340;52.964;6.086;2023-08-30T13:42:58;5.32;;;4.05;;
52414;SDS011;38340;52.964;6.086;2023-08-30T13:45:23;5.10;;;4.25;;
52414;SDS011;38340;52.964;6.086;2023-08-30T13:47:49;6.93;;;4.75;;
52414;SDS011;38340;52.964;6.086;2023-08-30T13:50:18;5.78;;;4.68;;
52414;SDS011;38340;52.964;6.086;2023-08-30T13:52:43;4.50;;;3.80;;
52414;SDS011;38340;52.964;6.086;2023-08-30T13:55:09;5.28;;;4.65;;
52414;SDS011;38340;52.964;6.086;2023-08-30T13:57:35;5.63;;;4.50;;
52414;SDS011;38340;52.964;6.086;2023-08-30T14:00:01;4.82;;;4.32;;
52414;SDS011;38340;52.964;6.086;2023-08-30T14:02:31;5.72;;;4.32;;
52414;SDS011;38340;52.964;6.086;2023-08-30T14:04:57;5.13;;;4.22;;
52414;SDS011;38340;52.964;6.086;2023-08-30T14:07:23;7.10;;;4.80;;
52414;SDS011;38340;52.964;6.086;2023-08-30T14:09:48;5.03;;;4.22;;
52414;SDS011;38340;52.964;6.086;2023-08-30T14:12:14;7.55;;;4.50;;
52414;SDS011;38340;52.964;6.086;2023-08-30T14:14:40;8.10;;;5.28;;
52414;SDS011;38340;52.964;6.086;2023-08-30T14:17:05;5.88;;;4.55;;
52414;SDS011;38340;52.964;6.086;2023-08-30T14:19:33;8.82;;;5.45;;
52414;SDS011;38340;52.964;6.086;2023-08-30T14:22:00;8.02;;;5.75;;
52414;SDS011;38340;52.964;6.086;2023-08-30T14:24:28;6.47;;;4.57;;
52414;SDS011;38340;52.964;6.086;2023-08-30T14:26:53;8.40;;;6.05;;
52414;SDS011;38340;52.964;6.086;2023-08-30T14:29:20;8.60;;;5.88;;
52414;SDS011;38340;52.964;6.086;2023-08-30T14:31:46;6.47;;;5.35;;